Time;durP1;ratioP1;P1;durP2;ratioP2;P2;SDS_P1;SDS_P2;PMS_P1;PMS_P2;Temp;Humidity;BMP_temperature;BMP_pressure;BME280_temperature;BME280_humidity;BME280_pressure;Samples;Min_cycle;Max_cycle;Signal;HPM_P1;HPM_P2
2020/12/17 00:01:29;;;;;;;11.20;8.90;;;;;;;9.83;52.00;100707.53;1752163;80;21226;-62
2020/12/17 00:03:56;;;;;;;10.30;8.03;;;;;;;9.83;51.96;100710.18;1747798;82;21138;-62
2020/12/17 00:06:26;;;;;;;12.13;8.25;;;;;;;9.83;51.97;100712.84;1751259;80;21210;-62
2020/12/17 00:08:53;;;;;;;10.53;8.35;;;;;;;9.83;51.95;100717.68;1779983;80;21151;-62
2020/12/17 00:11:20;;;;;;;10.93;8.53;;;;;;;9.83;51.94;100720.80;1747310;81;21405;-62
2020/12/17 00:13:48;;;;;;;11.40;8.53;;;;;;;9.83;51.95;100722.98;1751314;81;21199;-61
2020/12/17 00:16:18;;;;;;;12.60;8.98;;;;;;;9.84;51.95;100722.48;1749031;81;21139;-62
2020/12/17 00:18:46;;;;;;;12.95;9.30;;;;;;;9.83;51.97;100720.80;1723355;82;21166;-62
2020/12/17 00:21:13;;;;;;;13.38;9.08;;;;;;;9.83;51.97;100725.64;1748911;81;21170;-62
2020/12/17 00:23:40;;;;;;;10.38;8.73;;;;;;;9.84;51.97;100725.14;1776812;80;21339;-63
2020/12/17 00:26:07;;;;;;;9.58;7.95;;;;;;;9.83;51.97;100723.45;1738321;81;21159;-62
2020/12/17 00:28:35;;;;;;;10.75;7.85;;;;;;;9.84;51.99;100728.63;1765236;80;21393;-62
2020/12/17 00:31:02;;;;;;;11.40;8.73;;;;;;;9.84;52.00;100729.13;1712594;81;21116;-62
2020/12/17 00:33:30;;;;;;;11.80;8.65;;;;;;;9.85;51.96;100725.51;1765221;80;21134;-63
2020/12/17 00:35:57;;;;;;;10.68;8.30;;;;;;;9.86;51.97;100723.19;1779771;79;21541;-62
2020/12/17 00:38:24;;;;;;;12.33;8.95;;;;;;;9.86;51.98;100725.01;1784204;80;21159;-62
2020/12/17 00:40:52;;;;;;;11.00;8.40;;;;;;;9.86;51.95;100723.19;1737886;80;21135;-61
2020/12/17 00:43:19;;;;;;;14.10;9.40;;;;;;;9.87;51.98;100717.38;1781229;79;21600;-62
2020/12/17 00:45:46;;;;;;;12.40;8.88;;;;;;;9.87;51.93;100718.70;1781243;79;21155;-63
2020/12/17 00:48:14;;;;;;;12.25;9.13;;;;;;;9.86;51.98;100724.52;1780131;80;21363;-62
2020/12/17 00:50:41;;;;;;;11.55;9.25;;;;;;;9.86;51.98;100716.55;1778338;79;21635;-62
2020/12/17 00:53:08;;;;;;;13.45;9.28;;;;;;;9.86;51.99;100717.88;1782803;80;21154;-62
2020/12/17 00:55:37;;;;;;;11.65;8.25;;;;;;;9.85;52.00;100705.59;1758224;81;21206;-63
2020/12/17 00:58:04;;;;;;;11.03;8.10;;;;;;;9.86;51.96;100706.43;1787298;79;21079;-62
2020/12/17 01:00:32;;;;;;;12.75;9.23;;;;;;;9.86;51.99;100699.80;1759355;81;21191;-62
2020/12/17 01:02:59;;;;;;;13.40;10.13;;;;;;;9.85;52.00;100694.98;1785734;80;21170;-62
2020/12/17 01:05:26;;;;;;;11.65;8.90;;;;;;;9.84;52.00;100691.47;1753761;81;21123;-62
2020/12/17 01:07:54;;;;;;;10.55;7.78;;;;;;;9.86;52.01;100688.69;1749791;80;21172;-62
2020/12/17 01:10:22;;;;;;;11.60;8.60;;;;;;;9.84;52.00;100687.48;1767169;81;21572;-62
2020/12/17 01:12:50;;;;;;;10.90;9.08;;;;;;;9.84;52.01;100687.98;1763447;81;21377;-62
2020/12/17 01:15:18;;;;;;;11.20;9.13;;;;;;;9.83;52.00;100680.52;1754867;80;21183;-62
2020/12/17 01:17:45;;;;;;;11.30;8.60;;;;;;;9.83;52.04;100673.02;1758293;81;21167;-62
2020/12/17 01:20:12;;;;;;;10.50;8.23;;;;;;;9.83;52.02;100677.01;1768428;80;21131;-62
2020/12/17 01:22:40;;;;;;;11.28;8.75;;;;;;;9.83;52.00;100679.20;1781106;80;21165;-63
2020/12/17 01:25:08;;;;;;;10.55;8.05;;;;;;;9.83;52.02;100675.22;1783458;80;21390;-64
2020/12/17 01:27:35;;;;;;;12.18;8.28;;;;;;;9.82;52.03;100685.96;1756848;81;21187;-63
2020/12/17 01:30:03;;;;;;;10.85;8.43;;;;;;;9.83;52.04;100682.31;1781149;80;21166;-63
2020/12/17 01:32:31;;;;;;;10.90;8.38;;;;;;;9.83;52.03;100686.30;1798722;79;21179;-63
2020/12/17 01:34:58;;;;;;;12.28;8.75;;;;;;;9.84;52.05;100684.01;1765131;79;21176;-62
2020/12/17 01:37:25;;;;;;;11.70;8.58;;;;;;;9.84;52.07;100686.66;1783636;79;21247;-62
2020/12/17 01:39:53;;;;;;;10.85;8.40;;;;;;;9.84;52.08;100691.97;1792904;79;21140;-62
2020/12/17 01:42:20;;;;;;;10.48;8.18;;;;;;;9.83;52.03;100691.60;1772378;79;21167;-62
2020/12/17 01:44:47;;;;;;;12.30;9.38;;;;;;;9.83;52.04;100688.48;1786778;79;21202;-63
2020/12/17 01:47:16;;;;;;;10.95;8.80;;;;;;;9.83;52.04;100703.08;1764063;79;21199;-63
2020/12/17 01:49:45;;;;;;;9.28;8.23;;;;;;;9.84;52.08;100701.26;1783155;79;21387;-62
2020/12/17 01:52:13;;;;;;;11.10;8.75;;;;;;;9.83;52.09;100704.87;1749734;79;21237;-63
2020/12/17 01:54:54;;;;;;;11.18;8.60;;;;;;;9.82;52.09;100709.35;1763597;80;21204;-62
2020/12/17 01:57:22;;;;;;;9.85;7.85;;;;;;;9.83;52.09;100715.02;1751110;79;21170;-63
2020/12/17 01:59:50;;;;;;;13.00;9.25;;;;;;;9.82;52.06;100711.17;1773188;79;21135;-63
2020/12/17 02:02:19;;;;;;;10.85;8.88;;;;;;;9.81;52.11;100701.05;1773280;79;21203;-63
2020/12/17 02:04:46;;;;;;;10.58;7.92;;;;;;;9.82;52.09;100692.10;1791509;79;21170;-63
2020/12/17 02:07:13;;;;;;;9.63;8.33;;;;;;;9.81;52.13;100695.75;1779777;79;21175;-63
2020/12/17 02:09:42;;;;;;;10.08;7.47;;;;;;;9.82;52.13;100697.41;1772396;80;21232;-63
2020/12/17 02:12:10;;;;;;;11.40;8.03;;;;;;;9.81;52.14;100684.27;1753347;80;21148;-63
2020/12/17 02:14:37;;;;;;;11.57;8.00;;;;;;;9.82;52.13;100683.31;1777961;79;22228;-63
2020/12/17 02:17:04;;;;;;;9.55;7.62;;;;;;;9.81;52.13;100682.95;1778259;79;21152;-63
2020/12/17 02:19:32;;;;;;;11.12;7.67;;;;;;;9.81;52.13;100687.79;1792262;79;21568;-63
2020/12/17 02:21:59;;;;;;;11.68;8.10;;;;;;;9.82;52.16;100688.12;1812833;79;21194;-63
2020/12/17 02:24:26;;;;;;;10.25;7.83;;;;;;;9.82;52.13;100689.95;1782297;80;21135;-63
2020/12/17 02:26:55;;;;;;;8.70;7.47;;;;;;;9.83;52.13;100691.60;1792014;79;21364;-62
2020/12/17 02:29:22;;;;;;;9.45;7.37;;;;;;;9.82;52.12;100694.75;1777872;80;21132;-63
2020/12/17 02:31:50;;;;;;;11.05;7.90;;;;;;;9.82;52.12;100691.27;1791991;79;21139;-63
2020/12/17 02:34:18;;;;;;;8.60;7.05;;;;;;;9.82;52.12;100704.05;1779115;80;21136;-62
2020/12/17 02:36:46;;;;;;;8.88;7.30;;;;;;;9.82;52.12;100705.87;1755488;80;21144;-62
2020/12/17 02:39:13;;;;;;;9.70;7.28;;;;;;;9.82;52.12;100708.52;1773572;80;21394;-64
2020/12/17 02:41:41;;;;;;;9.50;7.45;;;;;;;9.82;52.13;100709.35;1758865;80;22053;-63
2020/12/17 02:44:09;;;;;;;8.80;7.33;;;;;;;9.83;52.16;100711.50;1770256;80;21400;-63
2020/12/17 02:46:36;;;;;;;9.73;7.70;;;;;;;9.83;52.16;100710.18;1792156;79;21182;-62
2020/12/17 02:49:03;;;;;;;9.28;6.97;;;;;;;9.82;52.17;100719.14;1806336;79;21167;-62
2020/12/17 02:51:31;;;;;;;8.30;6.95;;;;;;;9.83;52.17;100716.81;1801004;79;21314;-62
2020/12/17 02:53:58;;;;;;;9.73;7.25;;;;;;;9.82;52.17;100717.31;1754197;80;21151;-63
2020/12/17 02:56:25;;;;;;;8.63;6.70;;;;;;;9.83;52.13;100708.85;1803074;79;21155;-63
2020/12/17 02:58:52;;;;;;;9.10;7.40;;;;;;;9.84;52.16;100713.20;1771614;80;21575;-63
2020/12/17 03:01:19;;;;;;;8.03;7.12;;;;;;;9.83;52.16;100713.70;1803834;79;21616;-62
2020/12/17 03:03:47;;;;;;;8.65;7.03;;;;;;;9.83;52.15;100718.14;1780983;79;21428;-62
2020/12/17 03:06:15;;;;;;;8.65;6.83;;;;;;;9.83;52.15;100712.37;1749722;80;21168;-63
2020/12/17 03:08:42;;;;;;;9.53;7.10;;;;;;;9.83;52.16;100718.14;1772617;80;21180;-63
2020/12/17 03:11:10;;;;;;;9.03;7.08;;;;;;;9.83;52.18;100716.81;1742402;81;21279;-63
2020/12/17 03:13:37;;;;;;;9.45;7.05;;;;;;;9.83;52.18;100715.48;1765075;80;21183;-63
2020/12/17 03:16:04;;;;;;;8.03;6.60;;;;;;;9.82;52.19;100715.98;1784978;79;21445;-63
2020/12/17 03:18:31;;;;;;;8.25;6.25;;;;;;;9.83;52.18;100715.48;1784267;79;21170;-63
2020/12/17 03:21:54;;;;;;;8.65;6.62;;;;;;;9.88;52.22;100722.55;1745370;79;28756;-64
2020/12/17 03:24:21;;;;;;;7.67;6.42;;;;;;;9.82;52.19;100728.42;1745986;82;21610;-64
2020/12/17 03:26:49;;;;;;;7.40;6.03;;;;;;;9.83;52.22;100729.63;1765805;81;21379;-62
2020/12/17 03:29:17;;;;;;;7.53;5.90;;;;;;;9.85;52.18;100730.81;1766634;81;22074;-64
2020/12/17 03:31:44;;;;;;;9.50;6.78;;;;;;;9.84;52.21;100737.09;1759414;81;21593;-63
2020/12/17 03:34:11;;;;;;;9.80;7.33;;;;;;;9.86;52.21;100740.94;1763165;81;21230;-63
2020/12/17 03:36:39;;;;;;;7.65;6.20;;;;;;;9.84;52.22;100738.41;1748386;81;21133;-62
2020/12/17 03:39:06;;;;;;;8.15;6.62;;;;;;;9.85;52.20;100745.41;1745873;81;21375;-62
2020/12/17 03:41:33;;;;;;;8.18;6.67;;;;;;;9.84;52.22;100743.72;1754016;81;21182;-62
2020/12/17 03:44:00;;;;;;;7.58;6.40;;;;;;;9.84;52.18;100744.55;1736789;81;21178;-62
2020/12/17 03:46:28;;;;;;;7.47;5.58;;;;;;;9.85;52.20;100749.39;1743698;81;21176;-62
2020/12/17 03:48:55;;;;;;;9.18;6.75;;;;;;;9.84;52.22;100747.20;1765806;81;21175;-62
2020/12/17 03:51:22;;;;;;;7.12;6.28;;;;;;;9.85;52.18;100753.38;1764862;81;22609;-64
2020/12/17 03:53:49;;;;;;;7.17;5.87;;;;;;;9.85;52.17;100749.39;1751118;79;21155;-61
2020/12/17 03:56:17;;;;;;;8.45;6.72;;;;;;;9.86;52.19;100755.03;1763468;79;21166;-62
2020/12/17 03:58:45;;;;;;;7.92;6.60;;;;;;;9.86;52.19;100749.73;1748828;81;21175;-61
2020/12/17 04:01:12;;;;;;;7.85;6.00;;;;;;;9.85;52.18;100749.39;1765826;79;21565;-62
2020/12/17 04:03:39;;;;;;;7.47;5.60;;;;;;;9.86;52.18;100750.22;1766105;81;21622;-61
2020/12/17 04:06:07;;;;;;;8.03;6.37;;;;;;;9.86;52.20;100751.55;1741592;81;21190;-62
2020/12/17 04:08:34;;;;;;;7.05;5.78;;;;;;;9.87;52.20;100758.05;1752296;81;21143;-61
2020/12/17 04:11:02;;;;;;;7.53;6.30;;;;;;;9.87;52.19;100758.05;1736684;81;21178;-61
2020/12/17 04:13:30;;;;;;;7.65;5.95;;;;;;;9.87;52.17;100757.19;1757011;81;21667;-61
2020/12/17 04:15:59;;;;;;;7.20;5.80;;;;;;;9.87;52.22;100758.52;1742681;81;21371;-62
2020/12/17 04:18:26;;;;;;;9.00;6.92;;;;;;;9.87;52.22;100758.05;1754327;81;21148;-61
2020/12/17 04:20:53;;;;;;;7.67;6.45;;;;;;;9.87;52.20;100763.36;1727018;81;21162;-62
2020/12/17 04:23:21;;;;;;;7.42;5.75;;;;;;;9.87;52.22;100761.17;1734816;82;21188;-63
2020/12/17 04:25:49;;;;;;;7.22;6.12;;;;;;;9.87;52.20;100770.00;1731994;82;21194;-63
2020/12/17 04:28:16;;;;;;;7.50;5.62;;;;;;;9.87;52.23;100763.36;1710709;81;21382;-62
2020/12/17 04:30:44;;;;;;;7.30;6.00;;;;;;;9.87;52.21;100758.05;1706195;82;21174;-62
2020/12/17 04:33:11;;;;;;;6.22;5.55;;;;;;;9.88;52.20;100762.37;1712125;82;21158;-63
2020/12/17 04:35:38;;;;;;;8.50;5.67;;;;;;;9.88;52.17;100757.06;1715254;82;21146;-61
2020/12/17 04:38:06;;;;;;;6.25;5.40;;;;;;;9.88;52.20;100755.73;1730444;81;21147;-61
2020/12/17 04:40:33;;;;;;;7.08;5.45;;;;;;;9.88;52.17;100757.06;1705893;82;21320;-61
2020/12/17 04:43:00;;;;;;;6.53;5.35;;;;;;;9.88;52.20;100755.73;1710209;82;21245;-61
2020/12/17 04:45:28;;;;;;;6.72;5.62;;;;;;;9.88;52.20;100752.25;1705517;82;21083;-62
2020/12/17 04:47:55;;;;;;;7.28;5.83;;;;;;;9.88;52.21;100753.08;1721491;82;21186;-62
2020/12/17 04:50:24;;;;;;;8.40;5.85;;;;;;;9.89;52.20;100752.12;1719219;81;22036;-62
2020/12/17 04:52:53;;;;;;;6.97;5.65;;;;;;;9.89;52.21;100756.56;1735237;81;21371;-62
2020/12/17 04:55:24;;;;;;;7.33;5.62;;;;;;;9.88;52.19;100751.75;1724864;82;21170;-63
2020/12/17 04:57:52;;;;;;;8.40;6.22;;;;;;;9.88;52.19;100751.75;1706809;81;21194;-63
2020/12/17 05:00:19;;;;;;;7.80;5.62;;;;;;;9.88;52.21;100750.42;1735874;81;21178;-63
2020/12/17 05:02:47;;;;;;;7.67;6.00;;;;;;;9.89;52.19;100755.23;1720706;81;21166;-62
2020/12/17 05:05:15;;;;;;;7.53;5.97;;;;;;;9.89;52.20;100756.09;1709182;82;21365;-63
2020/12/17 05:07:43;;;;;;;9.35;6.10;;;;;;;9.90;52.18;100757.75;1735137;82;21218;-62
2020/12/17 05:10:10;;;;;;;7.40;5.45;;;;;;;9.90;52.21;100762.23;1709950;82;21151;-61
2020/12/17 05:12:37;;;;;;;7.45;5.75;;;;;;;9.91;52.20;100759.91;1730383;82;21162;-61
2020/12/17 05:15:05;;;;;;;7.00;5.62;;;;;;;9.90;52.20;100766.22;1743927;82;21161;-62
2020/12/17 05:17:32;;;;;;;8.73;6.25;;;;;;;9.91;52.24;100762.56;1721877;82;21577;-63
2020/12/17 05:19:59;;;;;;;6.78;5.47;;;;;;;9.91;52.17;100757.26;1735374;82;21674;-63
2020/12/17 05:22:27;;;;;;;6.65;5.92;;;;;;;9.91;52.17;100762.56;1736115;81;21191;-62
2020/12/17 05:24:55;;;;;;;6.70;5.40;;;;;;;9.91;52.17;100758.59;1678513;84;21162;-62
2020/12/17 05:27:22;;;;;;;8.28;5.72;;;;;;;9.93;52.17;100761.94;1676862;82;21202;-62
2020/12/17 05:29:49;;;;;;;6.85;5.15;;;;;;;9.93;52.14;100765.92;1683954;82;21174;-62
2020/12/17 05:32:18;;;;;;;8.38;6.15;;;;;;;9.93;52.16;100770.77;1683093;82;21147;-63
2020/12/17 05:34:46;;;;;;;7.67;6.08;;;;;;;9.94;52.17;100775.58;1781188;80;21169;-63
2020/12/17 05:37:14;;;;;;;7.58;5.85;;;;;;;9.94;52.15;100779.06;1746558;80;21175;-63
2020/12/17 05:39:43;;;;;;;7.15;6.03;;;;;;;9.94;52.15;100781.72;1777050;80;21157;-62
2020/12/17 05:42:14;;;;;;;7.35;5.40;;;;;;;9.95;52.15;100786.56;1775968;79;21249;-62
2020/12/17 05:44:41;;;;;;;7.83;6.78;;;;;;;9.94;52.18;100782.21;1727647;80;21589;-63
2020/12/17 05:47:13;;;;;;;5.80;4.80;;;;;;;9.94;52.18;100784.37;1774634;79;21126;-62
2020/12/17 05:49:41;;;;;;;7.35;5.58;;;;;;;9.94;52.15;100785.70;1780846;79;21161;-62
2020/12/17 05:52:20;;;;;;;7.05;5.35;;;;;;;9.95;52.13;100793.19;1779510;80;21177;-62
2020/12/17 05:55:00;;;;;;;7.33;5.75;;;;;;;9.95;52.15;100795.34;1773255;79;21197;-62
2020/12/17 05:57:27;;;;;;;7.00;5.17;;;;;;;9.95;52.15;100794.52;1774274;79;21149;-62
2020/12/17 06:00:03;;;;;;;6.42;5.22;;;;;;;9.94;52.18;100797.64;1780194;80;21184;-63
2020/12/17 06:02:35;;;;;;;7.72;5.78;;;;;;;9.95;52.17;100802.48;1781237;80;21574;-62
2020/12/17 06:05:12;;;;;;;6.83;5.12;;;;;;;9.94;52.18;100802.95;1779261;79;21170;-62
2020/12/17 06:07:47;;;;;;;6.47;5.58;;;;;;;9.94;52.21;100806.94;1762091;80;21380;-62
2020/12/17 06:10:21;;;;;;;7.22;5.53;;;;;;;9.94;52.22;100806.10;1778234;80;21188;-61
2020/12/17 06:12:52;;;;;;;7.35;5.40;;;;;;;9.94;52.22;100803.45;1780956;80;21110;-63
2020/12/17 06:15:21;;;;;;;7.53;5.92;;;;;;;9.94;52.24;100807.43;1780708;80;21161;-63
2020/12/17 06:17:54;;;;;;;8.83;6.03;;;;;;;9.94;52.24;100808.26;1781191;80;21161;-63
2020/12/17 06:20:23;;;;;;;7.53;5.70;;;;;;;9.94;52.22;100808.26;1779940;79;21351;-62
2020/12/17 06:22:54;;;;;;;7.42;5.78;;;;;;;9.95;52.22;100808.62;1781108;80;21118;-62
2020/12/17 06:25:27;;;;;;;7.58;5.80;;;;;;;9.94;52.22;100807.43;1779045;79;21145;-63
2020/12/17 06:27:55;;;;;;;7.60;5.97;;;;;;;9.95;52.25;100810.45;1749491;82;21149;-64
2020/12/17 06:30:25;;;;;;;7.25;5.80;;;;;;;9.95;52.23;100809.13;1736718;81;21132;-64
2020/12/17 06:33:00;;;;;;;6.60;5.45;;;;;;;9.96;52.22;100809.45;1737769;82;21290;-63
2020/12/17 06:35:47;;;;;;;8.23;6.20;;;;;;;9.97;52.21;100813.30;1735641;82;21653;-63
2020/12/17 06:40:52;;;;;;;8.03;7.17;;;;;;;10.00;52.25;100813.51;1764636;79;27880;-62
2020/12/17 06:43:34;;;;;;;8.00;6.45;;;;;;;10.20;51.89;100813.88;1730613;81;21165;-62
2020/12/17 06:46:02;;;;;;;6.80;5.67;;;;;;;10.43;51.37;100812.31;1742472;81;21398;-62
2020/12/17 06:48:43;;;;;;;8.13;6.12;;;;;;;10.36;51.40;100811.19;1780295;78;21157;-63
2020/12/17 06:51:39;;;;;;;8.55;6.30;;;;;;;10.30;51.44;100813.91;1804049;77;21127;-63
2020/12/17 06:54:17;;;;;;;8.03;6.00;;;;;;;10.26;51.56;100825.77;1811314;78;21636;-63
2020/12/17 06:57:12;;;;;;;7.53;5.58;;;;;;;10.20;51.61;100828.98;1802911;77;21437;-63
2020/12/17 06:59:41;;;;;;;7.35;5.85;;;;;;;10.17;51.69;100828.75;1813579;78;22621;-63
2020/12/17 07:02:08;;;;;;;6.67;5.72;;;;;;;10.14;51.73;100838.80;1792089;77;21563;-63
2020/12/17 07:04:44;;;;;;;8.20;5.78;;;;;;;10.12;51.79;100841.63;1808010;78;21642;-63
2020/12/17 07:07:22;;;;;;;8.00;6.33;;;;;;;10.11;51.83;100839.11;1802347;77;21583;-63
2020/12/17 07:09:56;;;;;;;8.38;6.35;;;;;;;10.10;51.88;100844.05;1801912;78;21142;-63
2020/12/17 07:12:40;;;;;;;8.95;6.53;;;;;;;10.09;51.89;100845.05;1755499;79;21351;-65
2020/12/17 07:15:33;;;;;;;8.70;7.22;;;;;;;10.08;51.96;100849.98;1750768;81;21182;-65
2020/12/17 07:18:21;;;;;;;7.47;6.22;;;;;;;10.08;51.97;100851.31;1726542;81;21562;-65
2020/12/17 07:20:52;;;;;;;9.00;6.87;;;;;;;10.06;52.01;100850.61;1792066;78;21195;-65
2020/12/17 07:23:20;;;;;;;9.13;7.28;;;;;;;10.04;52.02;100854.27;1800452;79;21174;-63
2020/12/17 07:25:52;;;;;;;8.50;7.10;;;;;;;10.05;52.06;100860.41;1782529;78;21199;-64
2020/12/17 07:28:23;;;;;;;7.42;6.47;;;;;;;10.06;52.07;100861.23;1793229;79;21103;-65
2020/12/17 07:30:54;;;;;;;7.45;6.10;;;;;;;10.07;52.29;100869.56;1725399;80;21174;-64
2020/12/17 07:33:40;;;;;;;8.50;6.95;;;;;;;10.08;52.41;100869.90;1747298;81;21638;-63
2020/12/17 07:36:11;;;;;;;8.53;6.30;;;;;;;10.09;52.42;100872.42;1705001;81;21693;-63
2020/12/17 07:38:38;;;;;;;8.63;6.87;;;;;;;10.10;52.43;100874.58;1736578;81;21368;-64
2020/12/17 07:41:24;;;;;;;8.30;6.78;;;;;;;10.11;52.40;100876.27;1712448;81;21229;-63
2020/12/17 07:43:53;;;;;;;7.10;6.00;;;;;;;10.11;52.39;100870.47;1727021;83;21180;-64
2020/12/17 07:46:38;;;;;;;9.88;7.10;;;;;;;10.11;52.35;100870.97;1787837;78;21581;-63
2020/12/17 07:49:26;;;;;;;9.98;7.78;;;;;;;10.12;52.37;100873.95;1769915;78;21733;-64
2020/12/17 07:51:54;;;;;;;8.98;7.00;;;;;;;10.11;52.35;100873.12;1767480;79;21381;-65
2020/12/17 07:54:21;;;;;;;8.83;6.95;;;;;;;10.12;52.33;100870.83;1781816;80;21191;-64
2020/12/17 07:56:49;;;;;;;9.38;6.78;;;;;;;10.13;52.34;100869.84;1786061;78;21574;-63
2020/12/17 07:59:17;;;;;;;9.33;7.67;;;;;;;10.14;52.30;100874.66;1781362;78;21169;-65
2020/12/17 08:01:44;;;;;;;8.80;6.85;;;;;;;10.16;52.29;100870.91;1772333;78;21198;-64
2020/12/17 08:04:12;;;;;;;10.65;7.72;;;;;;;10.17;52.25;100868.58;1722280;83;21583;-65
2020/12/17 08:06:39;;;;;;;9.65;7.58;;;;;;;10.19;52.25;100867.13;1745611;81;21217;-63
2020/12/17 08:09:07;;;;;;;10.48;7.80;;;;;;;10.19;52.18;100859.16;1714230;83;21185;-64
2020/12/17 08:11:36;;;;;;;10.18;8.05;;;;;;;10.20;52.16;100868.32;1715529;81;21194;-63
2020/12/17 08:14:07;;;;;;;9.23;7.35;;;;;;;10.21;52.11;100870.48;1726825;83;21148;-64
2020/12/17 08:16:35;;;;;;;10.45;8.53;;;;;;;10.21;52.08;100867.33;1727721;82;21336;-65
2020/12/17 08:19:02;;;;;;;9.98;7.75;;;;;;;10.23;52.09;100871.18;1776790;78;21193;-67
2020/12/17 08:21:31;;;;;;;10.55;8.10;;;;;;;10.24;52.07;100876.86;1746448;80;21202;-65
2020/12/17 08:23:58;;;;;;;8.35;7.40;;;;;;;10.26;52.09;100876.23;1746461;81;21792;-66
2020/12/17 08:26:28;;;;;;;11.12;8.75;;;;;;;10.26;52.05;100876.23;1735249;82;21174;-65
2020/12/17 08:28:55;;;;;;;9.78;7.42;;;;;;;10.28;52.03;100881.41;1720608;83;21370;-66
2020/12/17 08:31:28;;;;;;;9.75;7.75;;;;;;;10.28;52.03;100886.22;1717838;83;21646;-67
2020/12/17 08:34:00;;;;;;;;;;;;;;;10.29;52.03;100881.24;1796634;78;21621;-65
2020/12/17 08:36:33;;;;;;;9.30;7.37;;;;;;;10.30;51.98;100881.64;1786836;80;20261;-66
2020/12/17 08:39:07;;;;;;;10.48;8.68;;;;;;;10.23;52.10;100877.81;1788820;78;21547;-65
2020/12/17 08:41:42;;;;;;;10.10;7.72;;;;;;;10.24;52.09;100875.53;1773539;80;21381;-64
2020/12/17 08:44:09;;;;;;;10.35;8.03;;;;;;;10.26;52.05;100877.55;1785988;80;21207;-63
2020/12/17 08:46:41;;;;;;;9.55;7.62;;;;;;;10.27;52.04;100883.20;1761865;80;21178;-66
2020/12/17 08:49:08;;;;;;;10.30;8.35;;;;;;;10.28;52.02;100886.22;1792715;78;21208;-63
2020/12/17 08:51:36;;;;;;;10.13;7.90;;;;;;;10.29;52.02;100889.21;1788255;78;21579;-64
2020/12/17 08:54:04;;;;;;;11.12;8.48;;;;;;;10.30;52.03;100887.42;1768375;80;21435;-62
2020/12/17 08:56:33;;;;;;;11.05;8.33;;;;;;;10.30;52.00;100886.95;1788664;79;21145;-63
2020/12/17 08:59:04;;;;;;;12.73;8.95;;;;;;;10.31;51.98;100889.94;1778481;80;21643;-63
2020/12/17 09:01:35;;;;;;;11.90;8.53;;;;;;;10.33;51.97;100892.47;1788982;78;21202;-63
2020/12/17 09:04:07;;;;;;;9.63;8.28;;;;;;;10.33;51.95;100889.81;1798262;79;21199;-64
2020/12/17 09:06:34;;;;;;;10.13;8.20;;;;;;;10.34;51.94;100899.47;1790599;78;23649;-63
2020/12/17 09:09:16;;;;;;;13.43;9.88;;;;;;;10.34;51.94;100899.47;1777019;80;21163;-63
2020/12/17 09:11:45;;;;;;;9.83;8.08;;;;;;;10.35;51.92;100901.13;1775200;80;21594;-62
2020/12/17 09:14:19;;;;;;;12.60;9.30;;;;;;;10.35;51.90;100901.13;1764509;80;21178;-65
2020/12/17 09:16:43;;;;;;;11.88;9.08;;;;;;;10.34;51.90;100897.64;1782332;78;21152;-63
2020/12/17 09:19:10;;;;;;;11.55;8.63;;;;;;;10.35;51.93;100899.80;1803841;79;21366;-64
2020/12/17 09:22:00;;;;;;;10.60;8.78;;;;;;;10.35;51.92;100901.13;1802005;79;21162;-64
2020/12/17 09:24:29;;;;;;;11.33;8.75;;;;;;;10.35;51.90;100895.36;1785376;78;21568;-64
2020/12/17 09:27:20;;;;;;;11.43;7.65;;;;;;;10.35;51.92;100898.02;1760349;79;21198;-63
2020/12/17 09:30:08;;;;;;;10.38;6.75;;;;;;;10.39;59.64;100856.05;1767173;80;21483;-62
2020/12/17 09:32:39;;;;;;;8.50;6.80;;;;;;;10.80;65.80;100854.08;1788838;79;22637;-63
2020/12/17 09:35:12;;;;;;;8.43;6.62;;;;;;;11.32;67.43;100878.91;1782934;78;21197;-64
2020/12/17 09:37:41;;;;;;;9.25;6.78;;;;;;;11.60;66.18;100889.95;1782945;78;21162;-62
2020/12/17 09:40:09;;;;;;;8.13;6.70;;;;;;;11.77;63.32;100892.83;1788741;78;21218;-63
2020/12/17 09:42:37;;;;;;;10.08;7.90;;;;;;;11.84;61.68;100884.60;1768277;78;21155;-64
2020/12/17 09:45:19;;;;;;;9.00;7.30;;;;;;;11.90;61.08;100885.37;1783027;80;22270;-64
2020/12/17 09:47:46;;;;;;;10.75;7.03;;;;;;;11.92;60.73;100886.55;1781516;79;21185;-63
2020/12/17 09:50:16;;;;;;;9.90;7.83;;;;;;;11.90;60.70;100888.03;1790125;78;21166;-65
2020/12/17 09:52:44;;;;;;;10.25;7.15;;;;;;;11.88;60.80;100882.45;1796757;79;21148;-64
2020/12/17 09:55:12;;;;;;;9.70;7.53;;;;;;;11.84;60.86;100883.27;1789367;79;21218;-68
2020/12/17 09:57:43;;;;;;;10.05;8.28;;;;;;;11.81;60.86;100884.89;1799505;79;21369;-68
2020/12/17 10:00:14;;;;;;;10.60;8.30;;;;;;;11.78;60.66;100890.49;1788596;78;21650;-66
2020/12/17 10:02:42;;;;;;;11.25;8.03;;;;;;;11.74;60.44;100886.45;1780551;80;21167;-67
2020/12/17 10:05:13;;;;;;;10.98;8.68;;;;;;;11.70;60.20;100879.25;1798941;79;21153;-68
2020/12/17 10:07:46;;;;;;;10.23;8.45;;;;;;;11.67;59.92;100877.41;1781670;78;21174;-68
2020/12/17 10:10:14;;;;;;;;;;;;;;;11.65;59.64;100877.55;1789557;79;21272;-65
2020/12/17 10:12:42;;;;;;;11.10;8.28;;;;;;;11.61;59.42;100874.34;1789262;79;20225;-65
2020/12/17 10:15:11;;;;;;;11.68;8.93;;;;;;;11.51;59.35;100874.88;1731570;81;21237;-66
2020/12/17 10:17:38;;;;;;;11.12;8.70;;;;;;;11.50;59.11;100877.18;1746262;81;21184;-67
2020/12/17 10:20:09;;;;;;;9.70;8.63;;;;;;;11.49;58.86;100874.19;1723719;81;21127;-66
2020/12/17 10:22:39;;;;;;;10.98;9.18;;;;;;;11.49;58.60;100874.19;1788199;78;21351;-67
2020/12/17 10:25:08;;;;;;;11.25;8.80;;;;;;;11.47;58.32;100873.97;1782753;79;21171;-66
2020/12/17 10:27:35;;;;;;;12.53;9.98;;;;;;;11.46;58.16;100875.80;1783835;78;21146;-66
2020/12/17 10:30:04;;;;;;;15.55;9.48;;;;;;;11.45;57.95;100867.45;1702698;83;21267;-67
2020/12/17 10:32:32;;;;;;;13.98;10.00;;;;;;;11.45;57.75;100863.47;1706794;83;21201;-67
2020/12/17 10:35:00;;;;;;;11.75;9.88;;;;;;;11.44;57.58;100863.14;1734903;82;21372;-67
2020/12/17 10:37:27;;;;;;;12.37;9.88;;;;;;;11.44;57.40;100870.29;1751191;81;21681;-66
2020/12/17 10:39:54;;;;;;;13.05;10.13;;;;;;;11.44;57.17;100871.62;1722102;81;21251;-64
2020/12/17 10:42:22;;;;;;;16.20;11.70;;;;;;;11.43;56.99;100874.75;1769522;80;21106;-63
2020/12/17 10:44:50;;;;;;;13.48;9.48;;;;;;;11.42;56.86;100877.08;1771202;80;21564;-65
2020/12/17 10:47:18;;;;;;;13.38;10.55;;;;;;;11.41;56.70;100878.05;1762356;80;21199;-65
2020/12/17 10:49:46;;;;;;;13.88;10.30;;;;;;;11.40;56.54;100885.20;1772440;80;21231;-66
2020/12/17 10:52:14;;;;;;;14.07;10.13;;;;;;;11.39;56.44;100877.36;1766904;80;21222;-65
2020/12/17 10:54:42;;;;;;;13.62;10.70;;;;;;;11.37;56.30;100881.48;1773494;80;21196;-65
2020/12/17 10:57:09;;;;;;;12.43;9.88;;;;;;;11.37;56.15;100880.16;1773403;80;21087;-65
2020/12/17 10:59:36;;;;;;;14.60;11.08;;;;;;;11.36;56.03;100884.32;1765885;80;22586;-65
2020/12/17 11:02:04;;;;;;;14.45;10.68;;;;;;;11.35;55.91;100886.12;1716859;83;21131;-65
2020/12/17 11:04:32;;;;;;;13.50;11.18;;;;;;;11.34;55.84;100881.80;1719202;82;21151;-65
2020/12/17 11:07:00;;;;;;;15.18;10.38;;;;;;;11.33;55.74;100885.42;1718972;82;21178;-63
2020/12/17 11:09:29;;;;;;;12.70;9.93;;;;;;;11.34;55.63;100886.29;1770388;80;21119;-63
2020/12/17 11:11:56;;;;;;;13.03;10.08;;;;;;;11.33;55.51;100884.59;1780526;80;21203;-67
2020/12/17 11:14:24;;;;;;;15.63;10.45;;;;;;;11.32;55.48;100885.56;1770991;80;21149;-64
2020/12/17 11:16:51;;;;;;;12.45;10.48;;;;;;;11.30;55.39;100881.75;1761358;80;21162;-64
2020/12/17 11:19:19;;;;;;;13.13;10.53;;;;;;;11.30;55.28;100883.55;1756172;80;21160;-64
2020/12/17 11:21:46;;;;;;;12.15;10.05;;;;;;;11.29;55.23;100884.55;1759474;80;21165;-65
2020/12/17 11:24:14;;;;;;;14.38;12.13;;;;;;;11.28;55.10;100885.05;1745989;80;21299;-65
2020/12/17 11:26:45;;;;;;;11.65;10.23;;;;;;;11.28;55.06;100883.71;1778893;80;21127;-64
2020/12/17 11:29:13;;;;;;;14.05;11.05;;;;;;;11.27;54.96;100887.34;1753206;80;22468;-64
2020/12/17 11:31:44;;;;;;;12.80;10.75;;;;;;;11.27;54.93;100879.86;1759831;80;21157;-64
2020/12/17 11:34:11;;;;;;;12.70;11.05;;;;;;;11.26;54.89;100888.81;1761477;80;21161;-65
2020/12/17 11:36:39;;;;;;;12.28;10.18;;;;;;;11.25;54.83;100885.32;1736170;80;21212;-64
2020/12/17 11:39:06;;;;;;;13.43;11.12;;;;;;;11.24;54.76;100894.27;1711736;80;21583;-66
2020/12/17 11:41:34;;;;;;;14.43;10.95;;;;;;;11.25;54.69;100896.46;1771517;80;21663;-64